sensor_id;sensor_type;location;lat;lon;timestamp;P1;durP1;ratioP1;P2;durP2;ratioP2
47529;SDS011;33272;51.922;7.730;2022-08-03T00:01:04;4.20;;;3.80;;
47529;SDS011;33272;51.922;7.730;2022-08-03T00:03:32;4.73;;;4.10;;
47529;SDS011;33272;51.922;7.730;2022-08-03T00:05:59;5.80;;;3.90;;
47529;SDS011;33272;51.922;7.730;2022-08-03T00:08:28;6.17;;;4.50;;
47529;SDS011;33272;51.922;7.730;2022-08-03T00:10:55;5.37;;;3.90;;
47529;SDS011;33272;51.922;7.730;2022-08-03T00:13:22;4.30;;;3.90;;
47529;SDS011;33272;51.922;7.730;2022-08-03T00:15:49;6.27;;;4.17;;
47529;SDS011;33272;51.922;7.730;2022-08-03T00:18:16;6.33;;;4.40;;
47529;SDS011;33272;51.922;7.730;2022-08-03T00:20:44;4.20;;;3.80;;
47529;SDS011;33272;51.922;7.730;2022-08-03T00:23:11;5.43;;;4.07;;
47529;SDS011;33272;51.922;7.730;2022-08-03T00:25:39;5.30;;;4.13;;
47529;SDS011;33272;51.922;7.730;2022-08-03T00:28:06;5.63;;;3.90;;
47529;SDS011;33272;51.922;7.730;2022-08-03T00:30:34;5.50;;;4.40;;
47529;SDS011;33272;51.922;7.730;2022-08-03T00:33:01;5.27;;;4.07;;
47529;SDS011;33272;51.922;7.730;2022-08-03T00:35:29;4.60;;;4.13;;
47529;SDS011;33272;51.922;7.730;2022-08-03T00:37:56;5.27;;;3.83;;
47529;SDS011;33272;51.922;7.730;2022-08-03T00:40:23;5.70;;;4.30;;
47529;SDS011;33272;51.922;7.730;2022-08-03T00:42:52;4.33;;;3.93;;
47529;SDS011;33272;51.922;7.730;2022-08-03T00:45:21;4.13;;;3.77;;
47529;SDS011;33272;51.922;7.730;2022-08-03T00:47:51;5.40;;;3.87;;
47529;SDS011;33272;51.922;7.730;2022-08-03T00:50:20;4.77;;;4.00;;
47529;SDS011;33272;51.922;7.730;2022-08-03T00:52:48;4.13;;;3.73;;
47529;SDS011;33272;51.922;7.730;2022-08-03T00:55:18;6.17;;;4.30;;
47529;SDS011;33272;51.922;7.730;2022-08-03T00:57:45;4.70;;;3.97;;
47529;SDS011;33272;51.922;7.730;2022-08-03T01:00:14;4.40;;;3.80;;
47529;SDS011;33272;51.922;7.730;2022-08-03T01:02:44;4.37;;;3.97;;
47529;SDS011;33272;51.922;7.730;2022-08-03T01:05:11;5.37;;;4.00;;
47529;SDS011;33272;51.922;7.730;2022-08-03T01:07:45;7.73;;;4.77;;
47529;SDS011;33272;51.922;7.730;2022-08-03T01:10:27;6.23;;;4.00;;
47529;SDS011;33272;51.922;7.730;2022-08-03T01:13:07;5.63;;;5.00;;
47529;SDS011;33272;51.922;7.730;2022-08-03T01:15:49;4.73;;;4.07;;
47529;SDS011;33272;51.922;7.730;2022-08-03T01:18:26;4.17;;;3.73;;
47529;SDS011;33272;51.922;7.730;2022-08-03T01:21:01;6.20;;;3.97;;
47529;SDS011;33272;51.922;7.730;2022-08-03T01:23:46;6.00;;;3.70;;
47529;SDS011;33272;51.922;7.730;2022-08-03T01:26:27;5.10;;;4.30;;
47529;SDS011;33272;51.922;7.730;2022-08-03T01:29:36;4.90;;;4.00;;
47529;SDS011;33272;51.922;7.730;2022-08-03T01:32:36;6.37;;;4.63;;
47529;SDS011;33272;51.922;7.730;2022-08-03T01:35:12;6.03;;;4.40;;
47529;SDS011;33272;51.922;7.730;2022-08-03T01:37:47;5.87;;;4.40;;
47529;SDS011;33272;51.922;7.730;2022-08-03T01:40:20;6.03;;;4.40;;
47529;SDS011;33272;51.922;7.730;2022-08-03T01:42:50;5.00;;;4.03;;
47529;SDS011;33272;51.922;7.730;2022-08-03T01:45:22;5.20;;;4.20;;
47529;SDS011;33272;51.922;7.730;2022-08-03T01:47:52;4.97;;;4.47;;
47529;SDS011;33272;51.922;7.730;2022-08-03T01:50:21;4.37;;;3.77;;
47529;SDS011;33272;51.922;7.730;2022-08-03T01:52:52;5.03;;;4.10;;
47529;SDS011;33272;51.922;7.730;2022-08-03T01:55:21;6.30;;;4.47;;
47529;SDS011;33272;51.922;7.730;2022-08-03T01:57:51;4.97;;;4.30;;
47529;SDS011;33272;51.922;7.730;2022-08-03T02:00:21;6.63;;;5.20;;
47529;SDS011;33272;51.922;7.730;2022-08-03T02:02:50;5.13;;;4.53;;
47529;SDS011;33272;51.922;7.730;2022-08-03T02:05:19;6.97;;;4.87;;
47529;SDS011;33272;51.922;7.730;2022-08-03T02:07:48;5.77;;;4.17;;
47529;SDS011;33272;51.922;7.730;2022-08-03T02:10:17;5.13;;;4.63;;
47529;SDS011;33272;51.922;7.730;2022-08-03T02:12:47;6.20;;;4.80;;
47529;SDS011;33272;51.922;7.730;2022-08-03T02:15:15;6.43;;;5.27;;
47529;SDS011;33272;51.922;7.730;2022-08-03T02:17:46;5.97;;;5.20;;
47529;SDS011;33272;51.922;7.730;2022-08-03T02:20:13;5.33;;;4.83;;
47529;SDS011;33272;51.922;7.730;2022-08-03T02:22:41;5.77;;;5.00;;
47529;SDS011;33272;51.922;7.730;2022-08-03T02:25:10;6.33;;;4.70;;
47529;SDS011;33272;51.922;7.730;2022-08-03T02:27:42;5.00;;;4.50;;
47529;SDS011;33272;51.922;7.730;2022-08-03T02:30:17;5.07;;;4.57;;
47529;SDS011;33272;51.922;7.730;2022-08-03T02:32:47;5.53;;;4.67;;
47529;SDS011;33272;51.922;7.730;2022-08-03T02:35:21;9.50;;;5.23;;
47529;SDS011;33272;51.922;7.730;2022-08-03T02:37:52;6.00;;;5.17;;
47529;SDS011;33272;51.922;7.730;2022-08-03T02:40:25;7.73;;;5.03;;
47529;SDS011;33272;51.922;7.730;2022-08-03T02:42:56;5.37;;;4.63;;
47529;SDS011;33272;51.922;7.730;2022-08-03T02:45:27;4.90;;;4.40;;
47529;SDS011;33272;51.922;7.730;2022-08-03T02:47:58;6.03;;;5.20;;
47529;SDS011;33272;51.922;7.730;2022-08-03T02:50:30;5.23;;;4.40;;
47529;SDS011;33272;51.922;7.730;2022-08-03T02:53:00;5.20;;;4.43;;
47529;SDS011;33272;51.922;7.730;2022-08-03T02:55:28;6.43;;;4.93;;
47529;SDS011;33272;51.922;7.730;2022-08-03T02:57:58;4.50;;;4.10;;
47529;SDS011;33272;51.922;7.730;2022-08-03T03:00:26;5.10;;;4.57;;
47529;SDS011;33272;51.922;7.730;2022-08-03T03:02:54;4.50;;;3.90;;
47529;SDS011;33272;51.922;7.730;2022-08-03T03:05:24;5.13;;;4.27;;
47529;SDS011;33272;51.922;7.730;2022-08-03T03:07:52;5.40;;;4.90;;
47529;SDS011;33272;51.922;7.730;2022-08-03T03:10:19;5.10;;;4.53;;
47529;SDS011;33272;51.922;7.730;2022-08-03T03:12:47;7.87;;;4.83;;
47529;SDS011;33272;51.922;7.730;2022-08-03T03:15:17;5.80;;;5.20;;
47529;SDS011;33272;51.922;7.730;2022-08-03T03:17:44;6.13;;;5.50;;
47529;SDS011;33272;51.922;7.730;2022-08-03T03:20:14;7.13;;;4.83;;
47529;SDS011;33272;51.922;7.730;2022-08-03T03:22:43;6.20;;;4.80;;
47529;SDS011;33272;51.922;7.730;2022-08-03T03:25:13;5.50;;;4.93;;
47529;SDS011;33272;51.922;7.730;2022-08-03T03:27:40;5.80;;;5.20;;
47529;SDS011;33272;51.922;7.730;2022-08-03T03:30:08;5.77;;;5.17;;
47529;SDS011;33272;51.922;7.730;2022-08-03T03:32:37;6.23;;;4.80;;
47529;SDS011;33272;51.922;7.730;2022-08-03T03:35:05;5.40;;;4.90;;
47529;SDS011;33272;51.922;7.730;2022-08-03T03:37:33;6.30;;;4.97;;
47529;SDS011;33272;51.922;7.730;2022-08-03T03:40:02;8.67;;;5.23;;
47529;SDS011;33272;51.922;7.730;2022-08-03T03:42:33;6.03;;;5.27;;
47529;SDS011;33272;51.922;7.730;2022-08-03T03:45:02;5.93;;;5.03;;
47529;SDS011;33272;51.922;7.730;2022-08-03T03:47:29;5.67;;;5.10;;
47529;SDS011;33272;51.922;7.730;2022-08-03T03:49:56;6.23;;;5.50;;
47529;SDS011;33272;51.922;7.730;2022-08-03T03:52:24;6.43;;;4.93;;
47529;SDS011;33272;51.922;7.730;2022-08-03T03:54:51;5.97;;;4.90;;
47529;SDS011;33272;51.922;7.730;2022-08-03T03:57:19;9.93;;;5.93;;
47529;SDS011;33272;51.922;7.730;2022-08-03T03:59:46;7.00;;;5.50;;
47529;SDS011;33272;51.922;7.730;2022-08-03T04:02:13;5.93;;;5.33;;
47529;SDS011;33272;51.922;7.730;2022-08-03T04:04:40;6.53;;;5.20;;
47529;SDS011;33272;51.922;7.730;2022-08-03T04:07:25;6.33;;;5.73;;
47529;SDS011;33272;51.922;7.730;2022-08-03T04:10:11;7.43;;;6.10;;
47529;SDS011;33272;51.922;7.730;2022-08-03T04:13:01;6.53;;;5.90;;
47529;SDS011;33272;51.922;7.730;2022-08-03T04:15:31;6.60;;;5.60;;
47529;SDS011;33272;51.922;7.730;2022-08-03T04:18:00;6.43;;;5.53;;
47529;SDS011;33272;51.922;7.730;2022-08-03T04:20:29;6.83;;;5.13;;
47529;SDS011;33272;51.922;7.730;2022-08-03T04:23:00;8.97;;;5.57;;
47529;SDS011;33272;51.922;7.730;2022-08-03T04:25:29;9.17;;;5.60;;
47529;SDS011;33272;51.922;7.730;2022-08-03T04:28:00;5.83;;;5.10;;
47529;SDS011;33272;51.922;7.730;2022-08-03T04:30:30;5.60;;;5.10;;
47529;SDS011;33272;51.922;7.730;2022-08-03T04:32:58;6.93;;;5.17;;
47529;SDS011;33272;51.922;7.730;2022-08-03T04:35:28;7.07;;;5.80;;
47529;SDS011;33272;51.922;7.730;2022-08-03T04:37:58;7.23;;;5.57;;
47529;SDS011;33272;51.922;7.730;2022-08-03T04:40:32;6.90;;;5.13;;
47529;SDS011;33272;51.922;7.730;2022-08-03T04:43:01;5.53;;;4.97;;
47529;SDS011;33272;51.922;7.730;2022-08-03T04:45:30;6.50;;;4.70;;
47529;SDS011;33272;51.922;7.730;2022-08-03T04:47:59;7.73;;;5.47;;
47529;SDS011;33272;51.922;7.730;2022-08-03T04:50:26;8.27;;;6.07;;
47529;SDS011;33272;51.922;7.730;2022-08-03T04:52:53;7.07;;;5.43;;
47529;SDS011;33272;51.922;7.730;2022-08-03T04:55:25;6.90;;;5.03;;
47529;SDS011;33272;51.922;7.730;2022-08-03T04:57:52;7.97;;;5.43;;
47529;SDS011;33272;51.922;7.730;2022-08-03T05:00:21;6.03;;;5.10;;
47529;SDS011;33272;51.922;7.730;2022-08-03T05:02:49;7.33;;;5.63;;
47529;SDS011;33272;51.922;7.730;2022-08-03T05:05:17;9.47;;;5.63;;
47529;SDS011;33272;51.922;7.730;2022-08-03T05:07:45;7.30;;;5.07;;
47529;SDS011;33272;51.922;7.730;2022-08-03T05:10:13;10.67;;;5.37;;
47529;SDS011;33272;51.922;7.730;2022-08-03T05:12:40;6.63;;;4.97;;
47529;SDS011;33272;51.922;7.730;2022-08-03T05:15:07;6.50;;;5.90;;
47529;SDS011;33272;51.922;7.730;2022-08-03T05:17:37;7.17;;;5.00;;
47529;SDS011;33272;51.922;7.730;2022-08-03T05:20:04;5.73;;;4.13;;
47529;SDS011;33272;51.922;7.730;2022-08-03T05:22:32;7.47;;;5.10;;
47529;SDS011;33272;51.922;7.730;2022-08-03T05:24:59;6.13;;;4.10;;
47529;SDS011;33272;51.922;7.730;2022-08-03T05:27:27;7.43;;;4.60;;
47529;SDS011;33272;51.922;7.730;2022-08-03T05:29:54;7.30;;;5.00;;
47529;SDS011;33272;51.922;7.730;2022-08-03T05:32:21;5.93;;;4.70;;
47529;SDS011;33272;51.922;7.730;2022-08-03T05:34:49;9.50;;;5.00;;
47529;SDS011;33272;51.922;7.730;2022-08-03T05:37:16;9.30;;;6.63;;
47529;SDS011;33272;51.922;7.730;2022-08-03T05:39:43;7.43;;;5.27;;
47529;SDS011;33272;51.922;7.730;2022-08-03T05:42:10;8.40;;;4.80;;
47529;SDS011;33272;51.922;7.730;2022-08-03T05:44:40;7.70;;;5.10;;
47529;SDS011;33272;51.922;7.730;2022-08-03T05:47:07;5.33;;;4.33;;
47529;SDS011;33272;51.922;7.730;2022-08-03T05:49:34;4.37;;;3.60;;
47529;SDS011;33272;51.922;7.730;2022-08-03T05:52:03;9.90;;;4.70;;
47529;SDS011;33272;51.922;7.730;2022-08-03T05:54:30;8.50;;;4.90;;
47529;SDS011;33272;51.922;7.730;2022-08-03T05:56:57;5.30;;;4.23;;
47529;SDS011;33272;51.922;7.730;2022-08-03T05:59:24;6.47;;;3.97;;
47529;SDS011;33272;51.922;7.730;2022-08-03T06:01:51;5.17;;;3.73;;
47529;SDS011;33272;51.922;7.730;2022-08-03T06:04:18;5.80;;;4.30;;
47529;SDS011;33272;51.922;7.730;2022-08-03T06:06:45;4.27;;;3.83;;
47529;SDS011;33272;51.922;7.730;2022-08-03T06:09:15;5.10;;;4.10;;
47529;SDS011;33272;51.922;7.730;2022-08-03T06:11:43;5.17;;;3.97;;
47529;SDS011;33272;51.922;7.730;2022-08-03T06:14:10;6.47;;;4.17;;
47529;SDS011;33272;51.922;7.730;2022-08-03T06:16:37;6.43;;;4.00;;
47529;SDS011;33272;51.922;7.730;2022-08-03T06:19:04;6.40;;;4.00;;
47529;SDS011;33272;51.922;7.730;2022-08-03T06:21:31;5.40;;;3.87;;
47529;SDS011;33272;51.922;7.730;2022-08-03T06:23:58;5.40;;;4.07;;
47529;SDS011;33272;51.922;7.730;2022-08-03T06:26:26;6.57;;;4.47;;
47529;SDS011;33272;51.922;7.730;2022-08-03T06:28:53;5.63;;;4.13;;
47529;SDS011;33272;51.922;7.730;2022-08-03T06:31:21;6.47;;;3.90;;
47529;SDS011;33272;51.922;7.730;2022-08-03T06:33:51;6.13;;;4.63;;
47529;SDS011;33272;51.922;7.730;2022-08-03T06:36:18;4.63;;;3.80;;
47529;SDS011;33272;51.922;7.730;2022-08-03T06:38:45;7.27;;;3.53;;
47529;SDS011;33272;51.922;7.730;2022-08-03T06:41:12;4.40;;;3.53;;
47529;SDS011;33272;51.922;7.730;2022-08-03T06:43:41;5.07;;;3.40;;
47529;SDS011;33272;51.922;7.730;2022-08-03T06:46:08;7.20;;;4.40;;
47529;SDS011;33272;51.922;7.730;2022-08-03T06:48:35;5.80;;;4.17;;
47529;SDS011;33272;51.922;7.730;2022-08-03T06:51:03;5.37;;;3.63;;
47529;SDS011;33272;51.922;7.730;2022-08-03T06:53:30;5.63;;;3.73;;
47529;SDS011;33272;51.922;7.730;2022-08-03T06:55:57;5.83;;;3.20;;
47529;SDS011;33272;51.922;7.730;2022-08-03T06:58:24;6.00;;;3.73;;
47529;SDS011;33272;51.922;7.730;2022-08-03T07:00:52;6.50;;;3.47;;
47529;SDS011;33272;51.922;7.730;2022-08-03T07:03:19;5.23;;;3.67;;
47529;SDS011;33272;51.922;7.730;2022-08-03T07:05:46;3.87;;;3.10;;
47529;SDS011;33272;51.922;7.730;2022-08-03T07:08:15;5.40;;;3.47;;
47529;SDS011;33272;51.922;7.730;2022-08-03T07:10:42;4.50;;;3.17;;
47529;SDS011;33272;51.922;7.730;2022-08-03T07:13:11;4.87;;;3.30;;
47529;SDS011;33272;51.922;7.730;2022-08-03T07:15:38;6.17;;;2.83;;
47529;SDS011;33272;51.922;7.730;2022-08-03T07:18:07;4.40;;;3.20;;
47529;SDS011;33272;51.922;7.730;2022-08-03T07:20:34;4.90;;;2.63;;
47529;SDS011;33272;51.922;7.730;2022-08-03T07:23:01;5.93;;;2.90;;
47529;SDS011;33272;51.922;7.730;2022-08-03T07:25:28;4.53;;;2.60;;
47529;SDS011;33272;51.922;7.730;2022-08-03T07:27:55;4.40;;;2.90;;
47529;SDS011;33272;51.922;7.730;2022-08-03T07:30:22;4.83;;;2.77;;
47529;SDS011;33272;51.922;7.730;2022-08-03T07:32:49;4.13;;;2.80;;
47529;SDS011;33272;51.922;7.730;2022-08-03T07:35:17;4.37;;;2.70;;
47529;SDS011;33272;51.922;7.730;2022-08-03T07:37:45;4.57;;;2.40;;
47529;SDS011;33272;51.922;7.730;2022-08-03T07:40:12;4.90;;;2.43;;
47529;SDS011;33272;51.922;7.730;2022-08-03T07:42:41;6.33;;;2.23;;
47529;SDS011;33272;51.922;7.730;2022-08-03T07:45:09;3.20;;;2.50;;
47529;SDS011;33272;51.922;7.730;2022-08-03T07:47:36;3.80;;;2.50;;
47529;SDS011;33272;51.922;7.730;2022-08-03T07:50:04;6.23;;;2.70;;
47529;SDS011;33272;51.922;7.730;2022-08-03T07:52:33;4.63;;;2.20;;
47529;SDS011;33272;51.922;7.730;2022-08-03T07:55:17;3.23;;;1.93;;
47529;SDS011;33272;51.922;7.730;2022-08-03T07:57:46;4.67;;;2.33;;
47529;SDS011;33272;51.922;7.730;2022-08-03T08:00:24;3.93;;;2.43;;
47529;SDS011;33272;51.922;7.730;2022-08-03T08:02:52;3.27;;;2.27;;
47529;SDS011;33272;51.922;7.730;2022-08-03T08:05:19;2.77;;;1.90;;
47529;SDS011;33272;51.922;7.730;2022-08-03T08:07:47;3.70;;;2.27;;
47529;SDS011;33272;51.922;7.730;2022-08-03T08:10:14;4.03;;;2.53;;
47529;SDS011;33272;51.922;7.730;2022-08-03T08:12:41;3.73;;;2.30;;
47529;SDS011;33272;51.922;7.730;2022-08-03T08:15:08;2.73;;;2.20;;
47529;SDS011;33272;51.922;7.730;2022-08-03T08:17:42;3.97;;;2.27;;
47529;SDS011;33272;51.922;7.730;2022-08-03T08:20:14;6.67;;;2.30;;
47529;SDS011;33272;51.922;7.730;2022-08-03T08:22:43;5.40;;;2.20;;
47529;SDS011;33272;51.922;7.730;2022-08-03T08:25:11;2.90;;;2.43;;
47529;SDS011;33272;51.922;7.730;2022-08-03T08:27:40;5.77;;;2.10;;
47529;SDS011;33272;51.922;7.730;2022-08-03T08:30:08;3.63;;;2.40;;
47529;SDS011;33272;51.922;7.730;2022-08-03T08:32:37;3.97;;;2.30;;
47529;SDS011;33272;51.922;7.730;2022-08-03T08:35:05;3.83;;;2.40;;
47529;SDS011;33272;51.922;7.730;2022-08-03T08:37:34;4.83;;;2.30;;
47529;SDS011;33272;51.922;7.730;2022-08-03T08:40:01;5.83;;;2.00;;
47529;SDS011;33272;51.922;7.730;2022-08-03T08:42:31;6.27;;;2.10;;
47529;SDS011;33272;51.922;7.730;2022-08-03T08:44:59;2.67;;;2.07;;
47529;SDS011;33272;51.922;7.730;2022-08-03T08:47:29;3.73;;;2.23;;
47529;SDS011;33272;51.922;7.730;2022-08-03T08:49:58;4.37;;;2.57;;
47529;SDS011;33272;51.922;7.730;2022-08-03T08:52:27;3.67;;;2.30;;
47529;SDS011;33272;51.922;7.730;2022-08-03T08:54:56;3.70;;;2.43;;
47529;SDS011;33272;51.922;7.730;2022-08-03T08:57:27;2.40;;;1.90;;
47529;SDS011;33272;51.922;7.730;2022-08-03T08:59:58;4.70;;;2.03;;
47529;SDS011;33272;51.922;7.730;2022-08-03T09:02:28;4.20;;;2.27;;
47529;SDS011;33272;51.922;7.730;2022-08-03T09:04:56;5.30;;;2.67;;
47529;SDS011;33272;51.922;7.730;2022-08-03T09:07:24;2.87;;;2.20;;
47529;SDS011;33272;51.922;7.730;2022-08-03T09:09:54;2.90;;;2.10;;
47529;SDS011;33272;51.922;7.730;2022-08-03T09:12:21;5.60;;;1.90;;
47529;SDS011;33272;51.922;7.730;2022-08-03T09:14:48;2.87;;;2.40;;
47529;SDS011;33272;51.922;7.730;2022-08-03T09:17:17;3.67;;;2.37;;
47529;SDS011;33272;51.922;7.730;2022-08-03T09:19:46;3.30;;;2.07;;
47529;SDS011;33272;51.922;7.730;2022-08-03T09:22:32;2.87;;;2.03;;
47529;SDS011;33272;51.922;7.730;2022-08-03T09:25:00;3.23;;;1.93;;
47529;SDS011;33272;51.922;7.730;2022-08-03T09:27:40;2.67;;;2.10;;
47529;SDS011;33272;51.922;7.730;2022-08-03T09:30:11;4.87;;;2.60;;
47529;SDS011;33272;51.922;7.730;2022-08-03T09:32:41;4.27;;;2.30;;
47529;SDS011;33272;51.922;7.730;2022-08-03T09:35:10;3.40;;;2.30;;
47529;SDS011;33272;51.922;7.730;2022-08-03T09:37:38;2.50;;;2.20;;
47529;SDS011;33272;51.922;7.730;2022-08-03T09:40:06;4.30;;;2.00;;
47529;SDS011;33272;51.922;7.730;2022-08-03T09:42:34;3.17;;;1.90;;
47529;SDS011;33272;51.922;7.730;2022-08-03T09:45:02;3.27;;;2.27;;
47529;SDS011;33272;51.922;7.730;2022-08-03T09:47:31;4.30;;;2.33;;
47529;SDS011;33272;51.922;7.730;2022-08-03T09:50:02;7.83;;;2.50;;
47529;SDS011;33272;51.922;7.730;2022-08-03T09:52:32;3.73;;;2.10;;
47529;SDS011;33272;51.922;7.730;2022-08-03T09:55:01;3.23;;;2.30;;
47529;SDS011;33272;51.922;7.730;2022-08-03T09:57:34;3.37;;;2.07;;
47529;SDS011;33272;51.922;7.730;2022-08-03T10:00:05;4.63;;;2.30;;
47529;SDS011;33272;51.922;7.730;2022-08-03T10:02:36;6.97;;;3.00;;
47529;SDS011;33272;51.922;7.730;2022-08-03T10:05:06;3.63;;;2.43;;
47529;SDS011;33272;51.922;7.730;2022-08-03T10:07:42;5.17;;;2.33;;
47529;SDS011;33272;51.922;7.730;2022-08-03T10:10:10;3.47;;;2.00;;
47529;SDS011;33272;51.922;7.730;2022-08-03T10:12:38;2.93;;;2.50;;
47529;SDS011;33272;51.922;7.730;2022-08-03T10:15:07;2.50;;;1.70;;
47529;SDS011;33272;51.922;7.730;2022-08-03T10:17:35;3.43;;;2.33;;
47529;SDS011;33272;51.922;7.730;2022-08-03T10:20:03;4.47;;;2.30;;
47529;SDS011;33272;51.922;7.730;2022-08-03T10:22:35;2.80;;;2.10;;
47529;SDS011;33272;51.922;7.730;2022-08-03T10:25:05;5.87;;;2.53;;
47529;SDS011;33272;51.922;7.730;2022-08-03T10:27:35;5.00;;;2.33;;
47529;SDS011;33272;51.922;7.730;2022-08-03T10:30:05;3.73;;;2.10;;
47529;SDS011;33272;51.922;7.730;2022-08-03T10:32:36;3.77;;;2.33;;
47529;SDS011;33272;51.922;7.730;2022-08-03T10:35:10;6.03;;;2.47;;
47529;SDS011;33272;51.922;7.730;2022-08-03T10:37:41;4.53;;;2.40;;
47529;SDS011;33272;51.922;7.730;2022-08-03T10:40:13;6.53;;;2.10;;
47529;SDS011;33272;51.922;7.730;2022-08-03T10:42:44;3.77;;;2.20;;
47529;SDS011;33272;51.922;7.730;2022-08-03T10:45:13;3.90;;;1.93;;
47529;SDS011;33272;51.922;7.730;2022-08-03T10:47:45;2.70;;;1.60;;
47529;SDS011;33272;51.922;7.730;2022-08-03T10:50:14;3.30;;;1.70;;
47529;SDS011;33272;51.922;7.730;2022-08-03T10:55:32;3.03;;;2.10;;
47529;SDS011;33272;51.922;7.730;2022-08-03T11:01:15;3.40;;;2.00;;
47529;SDS011;33272;51.922;7.730;2022-08-03T11:06:47;3.30;;;2.10;;
47529;SDS011;33272;51.922;7.730;2022-08-03T11:09:39;4.67;;;2.00;;
47529;SDS011;33272;51.922;7.730;2022-08-03T11:12:18;3.23;;;2.00;;
47529;SDS011;33272;51.922;7.730;2022-08-03T11:14:48;5.43;;;2.00;;
47529;SDS011;33272;51.922;7.730;2022-08-03T11:17:15;5.83;;;2.20;;
47529;SDS011;33272;51.922;7.730;2022-08-03T11:19:44;2.80;;;2.17;;
47529;SDS011;33272;51.922;7.730;2022-08-03T11:22:14;4.63;;;2.60;;
47529;SDS011;33272;51.922;7.730;2022-08-03T11:24:56;5.20;;;2.37;;
47529;SDS011;33272;51.922;7.730;2022-08-03T11:27:26;6.90;;;2.30;;
47529;SDS011;33272;51.922;7.730;2022-08-03T11:29:59;5.37;;;2.60;;
47529;SDS011;33272;51.922;7.730;2022-08-03T11:35:26;3.90;;;2.00;;
47529;SDS011;33272;51.922;7.730;2022-08-03T11:38:09;2.90;;;2.17;;
47529;SDS011;33272;51.922;7.730;2022-08-03T11:40:38;6.80;;;2.20;;
47529;SDS011;33272;51.922;7.730;2022-08-03T11:43:09;4.70;;;2.20;;
47529;SDS011;33272;51.922;7.730;2022-08-03T11:46:10;3.40;;;2.27;;
47529;SDS011;33272;51.922;7.730;2022-08-03T11:48:42;3.13;;;2.17;;
47529;SDS011;33272;51.922;7.730;2022-08-03T11:51:17;8.53;;;2.63;;
47529;SDS011;33272;51.922;7.730;2022-08-03T11:53:52;4.43;;;1.97;;
47529;SDS011;33272;51.922;7.730;2022-08-03T11:56:20;3.77;;;2.20;;
47529;SDS011;33272;51.922;7.730;2022-08-03T11:58:48;4.07;;;2.20;;
47529;SDS011;33272;51.922;7.730;2022-08-03T12:01:17;4.87;;;2.30;;
47529;SDS011;33272;51.922;7.730;2022-08-03T12:03:45;2.53;;;1.90;;
47529;SDS011;33272;51.922;7.730;2022-08-03T12:06:13;2.23;;;1.80;;
47529;SDS011;33272;51.922;7.730;2022-08-03T12:08:42;5.17;;;2.13;;
47529;SDS011;33272;51.922;7.730;2022-08-03T12:11:13;6.57;;;2.37;;
47529;SDS011;33272;51.922;7.730;2022-08-03T12:13:41;2.97;;;2.20;;
47529;SDS011;33272;51.922;7.730;2022-08-03T12:16:15;1.97;;;1.80;;
47529;SDS011;33272;51.922;7.730;2022-08-03T12:18:43;6.37;;;2.03;;
47529;SDS011;33272;51.922;7.730;2022-08-03T12:21:11;3.63;;;2.00;;
47529;SDS011;33272;51.922;7.730;2022-08-03T12:23:38;4.60;;;2.40;;
47529;SDS011;33272;51.922;7.730;2022-08-03T12:26:05;4.60;;;1.97;;
47529;SDS011;33272;51.922;7.730;2022-08-03T12:28:37;2.93;;;2.03;;
47529;SDS011;33272;51.922;7.730;2022-08-03T12:31:12;4.30;;;2.07;;
47529;SDS011;33272;51.922;7.730;2022-08-03T12:33:55;5.87;;;2.03;;
47529;SDS011;33272;51.922;7.730;2022-08-03T12:36:28;4.20;;;2.00;;
47529;SDS011;33272;51.922;7.730;2022-08-03T12:38:57;2.97;;;1.97;;
47529;SDS011;33272;51.922;7.730;2022-08-03T12:41:27;5.77;;;2.50;;
47529;SDS011;33272;51.922;7.730;2022-08-03T12:43:57;3.87;;;2.40;;
47529;SDS011;33272;51.922;7.730;2022-08-03T12:46:28;7.63;;;2.50;;
47529;SDS011;33272;51.922;7.730;2022-08-03T12:49:01;5.77;;;2.60;;
47529;SDS011;33272;51.922;7.730;2022-08-03T12:51:36;4.33;;;2.10;;
47529;SDS011;33272;51.922;7.730;2022-08-03T12:54:21;4.20;;;2.60;;
47529;SDS011;33272;51.922;7.730;2022-08-03T12:56:56;2.97;;;2.20;;
47529;SDS011;33272;51.922;7.730;2022-08-03T12:59:28;3.67;;;2.67;;
47529;SDS011;33272;51.922;7.730;2022-08-03T13:01:57;5.77;;;2.33;;
47529;SDS011;33272;51.922;7.730;2022-08-03T13:04:25;6.83;;;2.50;;
47529;SDS011;33272;51.922;7.730;2022-08-03T13:06:57;4.93;;;2.53;;
47529;SDS011;33272;51.922;7.730;2022-08-03T13:09:26;7.27;;;2.57;;
47529;SDS011;33272;51.922;7.730;2022-08-03T13:12:05;5.13;;;2.57;;
47529;SDS011;33272;51.922;7.730;2022-08-03T13:14:35;8.47;;;2.57;;
47529;SDS011;33272;51.922;7.730;2022-08-03T13:17:03;6.70;;;2.20;;
47529;SDS011;33272;51.922;7.730;2022-08-03T13:19:31;4.37;;;2.10;;
47529;SDS011;33272;51.922;7.730;2022-08-03T13:21:59;7.00;;;2.83;;
47529;SDS011;33272;51.922;7.730;2022-08-03T13:24:27;6.40;;;2.70;;
47529;SDS011;33272;51.922;7.730;2022-08-03T13:26:54;6.10;;;2.93;;
47529;SDS011;33272;51.922;7.730;2022-08-03T13:29:21;7.27;;;2.47;;
47529;SDS011;33272;51.922;7.730;2022-08-03T13:31:49;7.10;;;2.63;;
47529;SDS011;33272;51.922;7.730;2022-08-03T13:34:17;5.70;;;2.03;;
47529;SDS011;33272;51.922;7.730;2022-08-03T13:36:44;3.80;;;2.30;;
47529;SDS011;33272;51.922;7.730;2022-08-03T13:39:11;6.72;;;2.72;;
47529;SDS011;33272;51.922;7.730;2022-08-03T13:41:38;4.22;;;2.30;;
47529;SDS011;33272;51.922;7.730;2022-08-03T13:44:05;3.83;;;1.90;;
47529;SDS011;33272;51.922;7.730;2022-08-03T13:46:32;4.43;;;2.40;;
47529;SDS011;33272;51.922;7.730;2022-08-03T13:49:00;8.07;;;2.42;;
47529;SDS011;33272;51.922;7.730;2022-08-03T13:51:27;4.63;;;2.53;;
47529;SDS011;33272;51.922;7.730;2022-08-03T13:53:54;2.95;;;2.10;;
47529;SDS011;33272;51.922;7.730;2022-08-03T13:56:23;3.60;;;1.92;;
47529;SDS011;33272;51.922;7.730;2022-08-03T13:58:50;3.87;;;2.50;;
47529;SDS011;33272;51.922;7.730;2022-08-03T14:01:17;4.07;;;2.30;;
47529;SDS011;33272;51.922;7.730;2022-08-03T14:03:45;3.58;;;2.00;;
47529;SDS011;33272;51.922;7.730;2022-08-03T14:06:14;6.05;;;2.90;;
47529;SDS011;33272;51.922;7.730;2022-08-03T14:08:41;5.53;;;1.75;;
47529;SDS011;33272;51.922;7.730;2022-08-03T14:11:08;4.80;;;2.03;;
47529;SDS011;33272;51.922;7.730;2022-08-03T14:13:35;6.85;;;2.17;;
47529;SDS011;33272;51.922;7.730;2022-08-03T14:16:03;4.00;;;1.95;;
47529;SDS011;33272;51.922;7.730;2022-08-03T14:18:30;2.80;;;2.08;;
47529;SDS011;33272;51.922;7.730;2022-08-03T14:20:58;4.15;;;2.10;;
47529;SDS011;33272;51.922;7.730;2022-08-03T14:23:27;4.07;;;2.20;;
47529;SDS011;33272;51.922;7.730;2022-08-03T14:25:54;6.20;;;1.90;;
47529;SDS011;33272;51.922;7.730;2022-08-03T14:28:22;4.57;;;2.25;;
47529;SDS011;33272;51.922;7.730;2022-08-03T14:30:49;5.10;;;1.92;;
47529;SDS011;33272;51.922;7.730;2022-08-03T14:33:17;3.20;;;1.90;;
47529;SDS011;33272;51.922;7.730;2022-08-03T14:35:45;4.15;;;2.00;;
47529;SDS011;33272;51.922;7.730;2022-08-03T14:38:12;3.53;;;2.00;;
47529;SDS011;33272;51.922;7.730;2022-08-03T14:40:40;7.38;;;2.03;;
47529;SDS011;33272;51.922;7.730;2022-08-03T14:43:08;6.13;;;2.20;;
47529;SDS011;33272;51.922;7.730;2022-08-03T14:45:35;2.88;;;1.63;;
47529;SDS011;33272;51.922;7.730;2022-08-03T14:48:03;6.03;;;1.92;;
47529;SDS011;33272;51.922;7.730;2022-08-03T14:50:31;7.68;;;2.15;;
47529;SDS011;33272;51.922;7.730;2022-08-03T14:52:58;3.88;;;1.50;;
47529;SDS011;33272;51.922;7.730;2022-08-03T14:55:25;3.53;;;1.70;;
47529;SDS011;33272;51.922;7.730;2022-08-03T14:57:54;4.70;;;2.03;;
47529;SDS011;33272;51.922;7.730;2022-08-03T15:00:21;5.15;;;1.90;;
47529;SDS011;33272;51.922;7.730;2022-08-03T15:02:48;5.70;;;2.03;;
47529;SDS011;33272;51.922;7.730;2022-08-03T15:05:15;4.90;;;2.20;;
47529;SDS011;33272;51.922;7.730;2022-08-03T15:07:42;3.58;;;2.08;;
47529;SDS011;33272;51.922;7.730;2022-08-03T15:10:09;2.78;;;1.92;;
47529;SDS011;33272;51.922;7.730;2022-08-03T15:12:36;6.30;;;2.03;;
47529;SDS011;33272;51.922;7.730;2022-08-03T15:15:05;3.40;;;1.77;;